Time;durP1;ratioP1;P1;durP2;ratioP2;P2;SDS_P1;SDS_P2;PMS_P1;PMS_P2;Temp;Humidity;BMP_temperature;BMP_pressure;BME280_temperature;BME280_humidity;BME280_pressure;Samples;Min_cycle;Max_cycle;Signal;HPM_P1;HPM_P2
2021/10/08 00:02:18;;;;;;;0.00;0.00;;;8.10;56.50;;;;;;5054534;28;20025;-75
2021/10/08 00:04:44;;;;;;;0.00;0.00;;;8.10;56.50;;;;;;5054592;28;20481;-75
2021/10/08 00:07:10;;;;;;;0.00;0.00;;;8.10;57.10;;;;;;5054281;28;20060;-76
2021/10/08 00:09:36;;;;;;;0.00;0.00;;;8.10;56.60;;;;;;5054607;28;20023;-74
2021/10/08 00:12:02;;;;;;;0.22;0.00;;;8.00;56.70;;;;;;5073065;28;20047;-75
2021/10/08 00:14:29;;;;;;;0.00;0.00;;;8.00;56.70;;;;;;5074181;28;20081;-76
2021/10/08 00:16:55;;;;;;;0.00;0.00;;;8.00;57.50;;;;;;5074322;28;20052;-75
2021/10/08 00:19:21;;;;;;;0.00;0.00;;;7.90;57.00;;;;;;5074208;28;20029;-75
2021/10/08 00:21:47;;;;;;;0.00;0.00;;;7.90;57.20;;;;;;5074226;28;20429;-74
2021/10/08 00:24:13;;;;;;;0.00;0.00;;;7.90;57.20;;;;;;5074034;28;20099;-75
2021/10/08 00:26:40;;;;;;;0.00;0.00;;;7.80;57.30;;;;;;5055325;28;20477;-75
2021/10/08 00:29:10;;;;;;;0.00;0.00;;;7.80;57.40;;;;;;5074208;28;20456;-74
2021/10/08 00:31:37;;;;;;;0.00;0.00;;;7.80;57.50;;;;;;5056102;28;20368;-75
2021/10/08 00:34:03;;;;;;;0.00;0.00;;;7.70;57.50;;;;;;5073704;28;20036;-75
2021/10/08 00:36:30;;;;;;;0.00;0.00;;;7.70;57.60;;;;;;5073997;28;20029;-75
2021/10/08 00:38:56;;;;;;;0.00;0.00;;;7.70;57.70;;;;;;5073879;28;20033;-75
2021/10/08 00:41:22;;;;;;;0.00;0.00;;;7.70;57.80;;;;;;5073594;28;20469;-74
2021/10/08 00:43:48;;;;;;;0.00;0.00;;;7.70;57.90;;;;;;5063319;28;20358;-74
2021/10/08 00:46:14;;;;;;;0.00;0.00;;;7.70;57.90;;;;;;5053430;28;20036;-74
2021/10/08 00:48:40;;;;;;;0.00;0.00;;;7.70;58.00;;;;;;5053466;28;20025;-74
2021/10/08 00:51:06;;;;;;;0.10;0.00;;;7.70;58.10;;;;;;5053901;28;20024;-74
2021/10/08 00:53:32;;;;;;;0.45;0.38;;;7.70;58.20;;;;;;5035786;28;20040;-75
2021/10/08 00:55:58;;;;;;;0.00;0.00;;;7.60;58.30;;;;;;5053581;28;20029;-74
2021/10/08 00:58:24;;;;;;;0.00;0.00;;;7.60;58.50;;;;;;5053567;28;20048;-74
2021/10/08 01:00:52;;;;;;;0.00;0.00;;;7.60;58.60;;;;;;5053574;28;20412;-74
2021/10/08 01:03:19;;;;;;;0.00;0.00;;;7.60;58.60;;;;;;5053550;28;20021;-75
2021/10/08 01:05:45;;;;;;;0.00;0.00;;;7.60;58.70;;;;;;5053242;28;20388;-75
2021/10/08 01:08:11;;;;;;;0.00;0.00;;;7.60;58.80;;;;;;5053691;28;20116;-75
2021/10/08 01:10:39;;;;;;;0.00;0.00;;;7.60;58.80;;;;;;5053510;28;20028;-74
2021/10/08 01:13:06;;;;;;;0.00;0.00;;;7.50;58.80;;;;;;5053679;28;20095;-73
2021/10/08 01:15:33;;;;;;;0.00;0.00;;;7.50;58.80;;;;;;5053504;28;20025;-74
2021/10/08 01:17:58;;;;;;;0.00;0.00;;;7.50;58.80;;;;;;5053210;28;20453;-74
2021/10/08 01:20:25;;;;;;;0.00;0.00;;;7.50;58.90;;;;;;5035497;28;20063;-75
2021/10/08 01:22:57;;;;;;;0.00;0.00;;;7.50;59.10;;;;;;5053440;28;20075;-73
2021/10/08 01:25:23;;;;;;;0.00;0.00;;;7.40;59.10;;;;;;5053037;28;20116;-73
2021/10/08 01:27:49;;;;;;;0.00;0.00;;;7.40;59.20;;;;;;5053375;28;20428;-74
2021/10/08 01:30:15;;;;;;;0.00;0.00;;;7.40;59.20;;;;;;5053386;28;20031;-78
2021/10/08 01:32:40;;;;;;;0.00;0.00;;;7.40;59.30;;;;;;5035715;28;20025;-74
2021/10/08 01:35:07;;;;;;;0.00;0.00;;;7.40;59.30;;;;;;5053743;28;20373;-74
2021/10/08 01:37:32;;;;;;;0.00;0.00;;;7.40;59.40;;;;;;5056122;28;20033;-74
2021/10/08 01:40:02;;;;;;;0.00;0.00;;;7.40;59.50;;;;;;5057698;28;20032;-74
2021/10/08 01:42:27;;;;;;;0.00;0.00;;;7.40;59.50;;;;;;5057222;28;20025;-74
2021/10/08 01:44:53;;;;;;;0.00;0.00;;;7.40;59.40;;;;;;5039883;28;20356;-74
2021/10/08 01:47:19;;;;;;;0.00;0.00;;;7.30;59.40;;;;;;5056873;28;20068;-74
2021/10/08 01:49:45;;;;;;;0.00;0.00;;;7.30;59.40;;;;;;5056917;28;20036;-75
2021/10/08 01:52:10;;;;;;;0.00;0.00;;;7.30;59.40;;;;;;5039303;28;20112;-75
2021/10/08 01:54:36;;;;;;;0.00;0.00;;;7.30;59.50;;;;;;5056717;28;20029;-75
2021/10/08 01:57:02;;;;;;;0.05;0.00;;;7.30;59.50;;;;;;5056738;28;20110;-75
2021/10/08 01:59:28;;;;;;;0.00;0.00;;;7.30;59.60;;;;;;5056714;28;20083;-75
2021/10/08 02:01:53;;;;;;;0.00;0.00;;;7.30;59.70;;;;;;5039109;28;20037;-75
2021/10/08 02:04:19;;;;;;;0.00;0.00;;;7.20;59.70;;;;;;5057096;28;20477;-75
2021/10/08 02:06:45;;;;;;;0.00;0.00;;;7.20;59.70;;;;;;5038801;28;20059;-75
2021/10/08 02:09:11;;;;;;;0.00;0.00;;;7.20;59.80;;;;;;5056739;28;20029;-75
2021/10/08 02:11:37;;;;;;;0.00;0.00;;;7.20;59.80;;;;;;5056693;28;20091;-75
2021/10/08 02:14:03;;;;;;;0.00;0.00;;;7.20;59.90;;;;;;5056845;28;20031;-75
2021/10/08 02:16:29;;;;;;;0.00;0.00;;;7.20;59.90;;;;;;5056610;28;20481;-74
2021/10/08 02:18:56;;;;;;;0.00;0.00;;;7.10;59.80;;;;;;5038735;28;20037;-74
2021/10/08 02:21:24;;;;;;;0.00;0.00;;;7.20;59.90;;;;;;5056273;28;20059;-75
2021/10/08 02:23:50;;;;;;;0.00;0.00;;;7.20;59.90;;;;;;5056564;28;20053;-75
2021/10/08 02:26:16;;;;;;;0.00;0.00;;;7.20;59.80;;;;;;5056241;28;20161;-75
2021/10/08 02:28:42;;;;;;;0.00;0.00;;;7.20;59.90;;;;;;5056206;28;20032;-75
2021/10/08 02:31:09;;;;;;;0.00;0.00;;;7.20;59.80;;;;;;5038649;28;20025;-74
2021/10/08 02:33:35;;;;;;;0.00;0.00;;;7.30;59.90;;;;;;5056329;28;20481;-74
2021/10/08 02:36:04;;;;;;;0.00;0.00;;;7.30;59.80;;;;;;5056448;28;20146;-75
2021/10/08 02:38:30;;;;;;;0.00;0.00;;;7.30;59.80;;;;;;5056135;28;20149;-75
2021/10/08 02:40:56;;;;;;;0.00;0.00;;;7.40;59.70;;;;;;5056113;28;20028;-74
2021/10/08 02:43:22;;;;;;;0.00;0.00;;;7.40;59.60;;;;;;5056275;28;20029;-75
2021/10/08 02:45:48;;;;;;;0.00;0.00;;;7.30;59.50;;;;;;5038195;28;20025;-74
2021/10/08 02:48:14;;;;;;;0.00;0.00;;;7.40;59.50;;;;;;5055069;28;20055;-74
2021/10/08 02:50:40;;;;;;;0.00;0.00;;;7.40;59.50;;;;;;5038099;28;20044;-75
2021/10/08 02:53:06;;;;;;;0.00;0.00;;;7.40;59.40;;;;;;5038196;28;20029;-75
2021/10/08 02:55:32;;;;;;;0.00;0.00;;;7.40;59.40;;;;;;5055893;28;20079;-75
2021/10/08 02:57:58;;;;;;;0.00;0.00;;;7.40;59.30;;;;;;5055931;28;20060;-75
2021/10/08 03:00:24;;;;;;;0.00;0.00;;;7.40;59.30;;;;;;5055519;28;20389;-75
2021/10/08 03:02:49;;;;;;;0.00;0.00;;;7.40;59.30;;;;;;5055689;28;20028;-75
2021/10/08 03:05:15;;;;;;;0.00;0.00;;;7.30;59.30;;;;;;5055467;28;20057;-74
2021/10/08 03:07:41;;;;;;;0.00;0.00;;;7.30;59.40;;;;;;5037837;28;20032;-74
2021/10/08 03:10:09;;;;;;;0.00;0.00;;;7.30;59.30;;;;;;5055775;28;20074;-76
2021/10/08 03:12:35;;;;;;;0.00;0.00;;;7.30;59.30;;;;;;5055642;28;20367;-75
2021/10/08 03:15:03;;;;;;;0.00;0.00;;;7.20;59.30;;;;;;5055385;28;20021;-75
2021/10/08 03:17:29;;;;;;;0.00;0.00;;;7.20;59.30;;;;;;5037526;28;20118;-75
2021/10/08 03:19:55;;;;;;;0.00;0.00;;;7.10;59.30;;;;;;5055235;28;20060;-75
2021/10/08 03:22:20;;;;;;;0.00;0.00;;;7.00;59.30;;;;;;5055394;28;20381;-76
2021/10/08 03:24:46;;;;;;;0.00;0.00;;;7.00;59.30;;;;;;5055378;28;20029;-75
2021/10/08 03:27:12;;;;;;;0.00;0.00;;;6.90;59.20;;;;;;5055324;28;20053;-75
2021/10/08 03:29:38;;;;;;;0.00;0.00;;;6.90;59.20;;;;;;5055234;28;20103;-74
2021/10/08 03:32:04;;;;;;;0.00;0.00;;;6.90;59.30;;;;;;5055008;28;20037;-75
2021/10/08 03:34:30;;;;;;;0.00;0.00;;;6.80;59.30;;;;;;5055130;28;20033;-75
2021/10/08 03:36:59;;;;;;;0.00;0.00;;;6.80;59.30;;;;;;5055378;28;20420;-73
2021/10/08 03:39:28;;;;;;;0.00;0.00;;;6.70;59.30;;;;;;5054678;28;20028;-76
2021/10/08 03:41:54;;;;;;;0.00;0.00;;;6.70;59.40;;;;;;5055094;28;20066;-74
2021/10/08 03:44:21;;;;;;;0.00;0.00;;;6.70;59.40;;;;;;5037180;28;20021;-74
2021/10/08 03:46:53;;;;;;;0.00;0.00;;;6.70;59.50;;;;;;5054844;28;20024;-73
2021/10/08 03:49:19;;;;;;;0.00;0.00;;;6.60;59.60;;;;;;5037343;28;20082;-73
2021/10/08 03:51:48;;;;;;;0.00;0.00;;;6.60;59.70;;;;;;5054894;28;20389;-74
2021/10/08 03:54:16;;;;;;;0.00;0.00;;;6.50;59.70;;;;;;5055341;28;20025;-74
2021/10/08 03:56:42;;;;;;;0.00;0.00;;;6.50;59.70;;;;;;5054941;28;20025;-74
2021/10/08 03:59:08;;;;;;;0.00;0.00;;;6.50;59.70;;;;;;5054536;28;20033;-75
2021/10/08 04:01:34;;;;;;;0.00;0.00;;;6.50;59.80;;;;;;5053793;28;20115;-76
2021/10/08 04:04:05;;;;;;;0.00;0.00;;;6.50;59.80;;;;;;5053402;28;20029;-75
2021/10/08 04:06:34;;;;;;;0.00;0.00;;;6.40;59.80;;;;;;5054329;28;20021;-75
2021/10/08 04:09:06;;;;;;;0.00;0.00;;;6.40;59.90;;;;;;5036828;28;20033;-75
2021/10/08 04:11:32;;;;;;;0.00;0.00;;;6.40;59.90;;;;;;5054270;28;20021;-75
2021/10/08 04:13:57;;;;;;;0.00;0.00;;;6.40;60.00;;;;;;5054526;28;20025;-75
2021/10/08 04:16:24;;;;;;;0.00;0.00;;;6.40;60.00;;;;;;5054499;28;20182;-75
2021/10/08 04:18:50;;;;;;;0.00;0.00;;;6.40;60.00;;;;;;5054247;28;20043;-75
2021/10/08 04:21:17;;;;;;;0.32;0.00;;;6.40;60.00;;;;;;5053098;28;20104;-75
2021/10/08 04:23:43;;;;;;;0.00;0.00;;;6.40;60.00;;;;;;5054256;28;20074;-76
2021/10/08 04:26:09;;;;;;;0.00;0.00;;;6.40;60.00;;;;;;5054094;28;20044;-75
2021/10/08 04:28:35;;;;;;;0.00;0.00;;;6.50;60.10;;;;;;5053789;28;20029;-74
2021/10/08 04:31:00;;;;;;;0.00;0.00;;;6.50;60.10;;;;;;5036156;28;20547;-74
2021/10/08 04:33:27;;;;;;;0.20;0.00;;;6.50;60.00;;;;;;5054057;28;20361;-75
2021/10/08 04:35:56;;;;;;;0.00;0.00;;;6.50;60.00;;;;;;5036579;28;20021;-76
2021/10/08 04:38:23;;;;;;;0.00;0.00;;;6.60;59.90;;;;;;5054063;28;20044;-75
2021/10/08 04:40:49;;;;;;;0.00;0.00;;;6.60;59.70;;;;;;5053765;28;20025;-75
2021/10/08 04:43:15;;;;;;;0.00;0.00;;;6.60;59.50;;;;;;5054294;28;20040;-76
2021/10/08 04:45:41;;;;;;;0.03;0.03;;;6.70;59.50;;;;;;5035824;28;20021;-75
2021/10/08 04:48:07;;;;;;;0.00;0.00;;;6.70;59.40;;;;;;5053575;28;20396;-74
2021/10/08 04:50:33;;;;;;;0.00;0.00;;;6.80;59.30;;;;;;5053718;28;20021;-77
2021/10/08 04:52:59;;;;;;;0.00;0.00;;;6.80;59.20;;;;;;5053330;28;20029;-74
2021/10/08 04:55:25;;;;;;;0.00;0.00;;;6.80;59.10;;;;;;5053340;28;20423;-74
2021/10/08 04:57:51;;;;;;;0.00;0.00;;;6.90;58.90;;;;;;5035544;28;20029;-76
2021/10/08 05:00:17;;;;;;;0.00;0.00;;;6.90;58.80;;;;;;5053686;28;20360;-76
2021/10/08 05:02:43;;;;;;;0.10;0.00;;;6.90;58.70;;;;;;5053038;28;20029;-76
2021/10/08 05:05:09;;;;;;;0.00;0.00;;;7.00;58.70;;;;;;5039090;28;20029;-76
2021/10/08 05:07:34;;;;;;;0.00;0.00;;;7.00;58.60;;;;;;5042053;28;20128;-76
2021/10/08 05:10:00;;;;;;;0.00;0.00;;;7.10;58.50;;;;;;5045096;28;20056;-76
2021/10/08 05:12:26;;;;;;;0.00;0.00;;;7.20;58.40;;;;;;5038518;28;20053;-75
2021/10/08 05:14:53;;;;;;;0.10;0.00;;;7.30;58.30;;;;;;5015593;28;20421;-75
2021/10/08 05:17:19;;;;;;;0.00;0.00;;;7.30;58.00;;;;;;5015584;28;20366;-76
2021/10/08 05:19:44;;;;;;;0.10;0.10;;;7.50;58.00;;;;;;5033224;28;20032;-75
2021/10/08 05:22:11;;;;;;;0.00;0.00;;;7.50;57.80;;;;;;5033147;28;20103;-75
2021/10/08 05:24:37;;;;;;;0.00;0.00;;;7.70;57.60;;;;;;5033518;28;20029;-74
2021/10/08 05:27:03;;;;;;;0.05;0.05;;;7.80;57.40;;;;;;5033458;28;20049;-75
2021/10/08 05:29:29;;;;;;;0.00;0.00;;;7.90;57.20;;;;;;5032916;28;20393;-74
2021/10/08 05:31:57;;;;;;;0.00;0.00;;;8.00;57.00;;;;;;5015727;28;20021;-75
2021/10/08 05:34:23;;;;;;;0.00;0.00;;;8.10;56.90;;;;;;5033351;28;20105;-75
2021/10/08 05:36:49;;;;;;;0.00;0.00;;;8.30;56.70;;;;;;5015514;28;20057;-76
2021/10/08 05:39:18;;;;;;;0.00;0.00;;;8.30;56.40;;;;;;5032865;28;20041;-75
2021/10/08 05:41:44;;;;;;;0.00;0.00;;;8.40;56.10;;;;;;5032947;28;20025;-75
2021/10/08 05:44:10;;;;;;;0.00;0.00;;;8.60;55.90;;;;;;5033066;28;20362;-75
2021/10/08 05:46:36;;;;;;;0.00;0.00;;;8.70;55.70;;;;;;5032895;28;20041;-75
2021/10/08 05:49:02;;;;;;;0.00;0.00;;;8.80;55.50;;;;;;5032850;28;20585;-75
2021/10/08 05:51:28;;;;;;;0.00;0.00;;;8.90;55.20;;;;;;5032823;28;20369;-75
2021/10/08 05:53:53;;;;;;;0.22;0.10;;;9.10;55.00;;;;;;5033022;28;20033;-75
2021/10/08 05:56:19;;;;;;;0.00;0.00;;;9.20;55.30;;;;;;5033144;28;20037;-75
2021/10/08 05:58:45;;;;;;;0.00;0.00;;;9.30;54.50;;;;;;5015137;28;20041;-75
2021/10/08 06:01:10;;;;;;;0.45;0.10;;;9.40;54.30;;;;;;5032712;28;20025;-75
2021/10/08 06:03:37;;;;;;;0.10;0.00;;;9.60;54.00;;;;;;5032908;28;20048;-77
2021/10/08 06:06:03;;;;;;;0.00;0.00;;;9.70;53.80;;;;;;5032893;28;20068;-75
2021/10/08 06:08:29;;;;;;;0.00;0.00;;;9.80;53.50;;;;;;5033501;28;20029;-76
2021/10/08 06:10:55;;;;;;;0.00;0.00;;;9.90;53.30;;;;;;5015111;28;20030;-76
2021/10/08 06:13:21;;;;;;;0.00;0.00;;;10.00;53.10;;;;;;5015387;28;20033;-75
2021/10/08 06:15:46;;;;;;;0.00;0.00;;;10.10;52.80;;;;;;5033050;28;20025;-75
2021/10/08 06:18:12;;;;;;;0.00;0.00;;;10.10;52.60;;;;;;5017591;28;20441;-75
2021/10/08 06:20:38;;;;;;;0.00;0.00;;;10.10;52.50;;;;;;5032720;28;20065;-77
2021/10/08 06:23:04;;;;;;;0.00;0.00;;;10.20;52.40;;;;;;5032770;28;20026;-75
2021/10/08 06:25:30;;;;;;;0.00;0.00;;;10.20;52.40;;;;;;5036392;28;20025;-75
2021/10/08 06:27:55;;;;;;;0.00;0.00;;;10.20;52.20;;;;;;5018820;28;20038;-76
2021/10/08 06:30:22;;;;;;;0.00;0.00;;;10.20;52.10;;;;;;5018582;28;20105;-74
2021/10/08 06:32:48;;;;;;;0.00;0.00;;;10.30;52.10;;;;;;5036583;28;20029;-74
2021/10/08 06:35:14;;;;;;;0.00;0.00;;;10.30;52.10;;;;;;5036171;28;20492;-75
2021/10/08 06:37:40;;;;;;;0.00;0.00;;;10.30;52.00;;;;;;5036386;28;20470;-75
2021/10/08 06:40:07;;;;;;;0.00;0.00;;;10.30;51.80;;;;;;5036499;28;20049;-75
2021/10/08 06:42:33;;;;;;;0.00;0.00;;;10.30;51.80;;;;;;5018792;28;20037;-76
2021/10/08 06:44:59;;;;;;;0.00;0.00;;;10.30;51.90;;;;;;5036330;28;20025;-76
2021/10/08 06:47:27;;;;;;;0.03;0.00;;;10.30;52.00;;;;;;5019116;28;20511;-76
2021/10/08 06:49:53;;;;;;;0.00;0.00;;;10.40;52.10;;;;;;5036176;28;20136;-76
2021/10/08 06:52:19;;;;;;;0.00;0.00;;;10.60;52.00;;;;;;5018690;28;20025;-76
2021/10/08 06:54:45;;;;;;;0.00;0.00;;;10.80;51.80;;;;;;5017995;28;20080;-75
2021/10/08 06:57:11;;;;;;;0.00;0.00;;;11.10;51.50;;;;;;5049860;28;20029;-77
2021/10/08 06:59:36;;;;;;;0.00;0.00;;;11.40;51.10;;;;;;5049795;28;20072;-77
2021/10/08 07:02:03;;;;;;;0.00;0.00;;;11.60;50.60;;;;;;5025691;28;20045;-76
2021/10/08 07:04:29;;;;;;;0.00;0.00;;;11.70;50.10;;;;;;5043277;28;20025;-75
2021/10/08 07:06:55;;;;;;;0.00;0.00;;;11.70;49.80;;;;;;5037816;28;20033;-74
2021/10/08 07:09:20;;;;;;;0.00;0.00;;;11.70;49.80;;;;;;5017914;28;20425;-75
2021/10/08 07:11:46;;;;;;;0.00;0.00;;;11.80;49.70;;;;;;5035699;28;20060;-75
2021/10/08 07:14:12;;;;;;;0.00;0.00;;;12.00;49.70;;;;;;5039842;28;20433;-77
2021/10/08 07:16:38;;;;;;;0.00;0.00;;;12.30;49.50;;;;;;5041914;28;20048;-78
2021/10/08 07:19:08;;;;;;;0.00;0.00;;;12.60;49.20;;;;;;5045395;28;20036;-75
2021/10/08 07:21:34;;;;;;;0.00;0.00;;;12.70;48.60;;;;;;5045263;28;20029;-74
2021/10/08 07:24:01;;;;;;;0.00;0.00;;;12.90;48.10;;;;;;5045135;28;20536;-76
2021/10/08 07:26:30;;;;;;;0.00;0.00;;;13.00;47.80;;;;;;5045137;28;20125;-76
2021/10/08 07:28:56;;;;;;;0.00;0.00;;;12.90;47.70;;;;;;5044831;28;20032;-75
2021/10/08 07:31:22;;;;;;;0.00;0.00;;;12.90;47.70;;;;;;5044817;28;20032;-74
2021/10/08 07:33:48;;;;;;;0.00;0.00;;;12.90;47.60;;;;;;5027090;28;20032;-74
2021/10/08 07:36:14;;;;;;;0.00;0.00;;;13.20;47.50;;;;;;5044393;28;20025;-75
2021/10/08 07:38:40;;;;;;;0.00;0.00;;;13.70;47.10;;;;;;5045329;28;20386;-76
2021/10/08 07:41:07;;;;;;;0.00;0.00;;;14.20;46.30;;;;;;5043659;28;20021;-75
2021/10/08 07:43:33;;;;;;;0.00;0.00;;;14.50;45.30;;;;;;5024744;28;20101;-76
2021/10/08 07:45:59;;;;;;;0.00;0.00;;;14.50;44.70;;;;;;5042767;28;20033;-75
2021/10/08 07:48:25;;;;;;;0.08;0.08;;;14.50;44.60;;;;;;5044614;28;20032;-75
2021/10/08 07:50:51;;;;;;;0.00;0.00;;;14.50;44.40;;;;;;5043649;28;20017;-76
2021/10/08 07:53:16;;;;;;;0.00;0.00;;;14.50;44.10;;;;;;5042520;28;20033;-78
2021/10/08 07:55:42;;;;;;;0.00;0.00;;;14.40;44.00;;;;;;5044157;28;20444;-74
2021/10/08 07:58:08;;;;;;;0.00;0.00;;;14.40;44.20;;;;;;5041871;28;20038;-76
2021/10/08 08:00:34;;;;;;;0.00;0.00;;;14.50;44.30;;;;;;5045081;28;20109;-78
2021/10/08 08:02:59;;;;;;;0.00;0.00;;;14.60;44.20;;;;;;5045242;28;20096;-74
2021/10/08 08:05:26;;;;;;;0.10;0.10;;;14.50;44.30;;;;;;5041946;28;20377;-76
2021/10/08 08:07:51;;;;;;;0.00;0.00;;;14.30;44.30;;;;;;5026467;28;20082;-75
2021/10/08 08:10:17;;;;;;;0.00;0.00;;;14.30;44.50;;;;;;5042829;28;20465;-76
2021/10/08 08:12:43;;;;;;;0.00;0.00;;;14.20;44.40;;;;;;5042091;28;20032;-76
2021/10/08 08:15:09;;;;;;;0.08;0.00;;;14.10;44.30;;;;;;5054030;28;20087;-74
2021/10/08 08:17:35;;;;;;;0.10;0.10;;;13.90;44.40;;;;;;5035980;28;20042;-74
2021/10/08 08:20:03;;;;;;;0.00;0.00;;;13.70;44.70;;;;;;5036303;28;20031;-76
2021/10/08 08:22:29;;;;;;;0.00;0.00;;;13.50;45.20;;;;;;5036390;28;20029;-75
2021/10/08 08:24:54;;;;;;;0.00;0.00;;;13.30;45.80;;;;;;5061945;28;20086;-76
2021/10/08 08:27:20;;;;;;;0.00;0.00;;;13.00;46.40;;;;;;5073148;28;20050;-74
2021/10/08 08:29:46;;;;;;;0.00;0.00;;;12.90;47.20;;;;;;5073667;28;20077;-75
2021/10/08 08:32:12;;;;;;;0.00;0.00;;;12.80;47.90;;;;;;5073875;28;20107;-75
2021/10/08 08:34:37;;;;;;;0.00;0.00;;;12.90;48.40;;;;;;5074121;28;20021;-75
2021/10/08 08:37:03;;;;;;;0.00;0.00;;;13.00;48.40;;;;;;5045343;28;20025;-76
2021/10/08 08:39:34;;;;;;;0.00;0.00;;;13.20;48.20;;;;;;5043467;28;20031;-76
2021/10/08 08:41:59;;;;;;;0.00;0.00;;;13.40;48.00;;;;;;5042470;28;20028;-77
2021/10/08 08:44:25;;;;;;;0.00;0.00;;;13.60;47.90;;;;;;5041852;28;20029;-75
2021/10/08 08:46:51;;;;;;;0.00;0.00;;;13.80;47.80;;;;;;5037675;28;20163;-75
2021/10/08 08:49:16;;;;;;;0.30;0.00;;;13.90;47.50;;;;;;5033839;28;20124;-74
2021/10/08 08:51:42;;;;;;;0.00;0.00;;;13.90;47.30;;;;;;5047597;28;20113;-75
2021/10/08 08:54:08;;;;;;;0.00;0.00;;;13.90;47.10;;;;;;5054105;28;20032;-75
2021/10/08 08:56:35;;;;;;;0.00;0.00;;;13.90;46.80;;;;;;5053725;28;20068;-74
2021/10/08 08:59:05;;;;;;;0.00;0.00;;;13.90;46.60;;;;;;5034256;28;20033;-76
2021/10/08 09:01:32;;;;;;;0.20;0.20;;;13.90;46.50;;;;;;5053741;28;20044;-76
2021/10/08 09:04:06;;;;;;;0.00;0.00;;;14.00;46.40;;;;;;5046278;28;20029;-79
2021/10/08 09:06:34;;;;;;;;;;;14.10;46.30;;;;;;5033651;28;20028;-76
2021/10/08 09:09:14;;;;;;;0.00;0.00;;;14.40;46.30;;;;;;5033883;28;19912;-76
2021/10/08 09:11:40;;;;;;;0.10;0.10;;;14.60;45.60;;;;;;5016131;28;20052;-76
2021/10/08 09:14:27;;;;;;;0.20;0.10;;;14.80;45.00;;;;;;5027621;28;20037;-75
2021/10/08 09:17:16;;;;;;;0.00;0.00;;;15.00;44.10;;;;;;5053346;28;20362;-76
2021/10/08 09:19:57;;;;;;;0.00;0.00;;;15.20;43.80;;;;;;5053510;28;20033;-76
2021/10/08 09:22:46;;;;;;;0.00;0.00;;;15.50;43.70;;;;;;5040980;28;20029;-77
2021/10/08 09:25:16;;;;;;;0.00;0.00;;;15.90;43.30;;;;;;5033608;28;20079;-75
2021/10/08 09:27:45;;;;;;;0.30;0.10;;;16.30;42.70;;;;;;5015999;28;20045;-77
2021/10/08 09:30:12;;;;;;;0.00;0.00;;;16.90;42.00;;;;;;5036485;28;20087;-77
2021/10/08 09:32:50;;;;;;;0.00;0.00;;;17.40;41.30;;;;;;5026064;28;20040;-75
2021/10/08 09:35:20;;;;;;;0.00;0.00;;;18.30;40.60;;;;;;5044583;28;20108;-75
2021/10/08 09:38:03;;;;;;;0.00;0.00;;;19.00;39.20;;;;;;5039773;28;20025;-75
2021/10/08 09:40:34;;;;;;;0.08;0.08;;;19.60;37.50;;;;;;5029419;28;20048;-77
2021/10/08 09:43:06;;;;;;;0.00;0.00;;;20.80;37.40;;;;;;5032865;28;20029;-75
2021/10/08 09:45:44;;;;;;;0.00;0.00;;;21.90;36.00;;;;;;5042064;28;20041;-75
2021/10/08 09:48:11;;;;;;;0.00;0.00;;;22.20;34.50;;;;;;5050385;28;20036;-75
2021/10/08 09:50:38;;;;;;;0.05;0.00;;;22.20;34.00;;;;;;5024278;28;20036;-75
2021/10/08 09:53:14;;;;;;;0.00;0.00;;;22.20;33.80;;;;;;5015133;28;20032;-75
2021/10/08 09:55:42;;;;;;;0.00;0.00;;;22.50;33.30;;;;;;5037027;28;20369;-75
2021/10/08 09:58:09;;;;;;;0.00;0.00;;;22.40;32.80;;;;;;5033604;28;20034;-75
2021/10/08 10:00:43;;;;;;;0.00;0.00;;;21.90;32.40;;;;;;5019718;28;20056;-75
2021/10/08 10:03:12;;;;;;;0.00;0.00;;;21.40;32.70;;;;;;5049604;28;20041;-75
2021/10/08 10:05:38;;;;;;;0.03;0.00;;;20.90;33.40;;;;;;5056814;28;20032;-75
2021/10/08 10:08:04;;;;;;;0.00;0.00;;;20.50;34.00;;;;;;5038452;28;20079;-79
2021/10/08 10:10:31;;;;;;;0.17;0.17;;;20.00;34.00;;;;;;5056747;28;20029;-75
2021/10/08 10:12:59;;;;;;;0.00;0.00;;;19.50;34.10;;;;;;5056768;28;20017;-75
2021/10/08 10:15:25;;;;;;;0.10;0.10;;;19.10;34.50;;;;;;5056815;28;20021;-76
2021/10/08 10:17:51;;;;;;;0.00;0.00;;;19.30;34.70;;;;;;5038389;28;20432;-74
2021/10/08 10:20:17;;;;;;;0.00;0.00;;;20.40;34.30;;;;;;5042297;28;20025;-74
2021/10/08 10:22:44;;;;;;;0.08;0.08;;;21.80;33.30;;;;;;5076631;28;20039;-75
2021/10/08 10:25:14;;;;;;;0.00;0.00;;;22.90;32.10;;;;;;5060350;28;20028;-77
2021/10/08 10:27:41;;;;;;;0.00;0.00;;;23.60;31.40;;;;;;5047380;28;20044;-76
2021/10/08 10:30:09;;;;;;;0.00;0.00;;;24.50;31.00;;;;;;5043535;28;20037;-77
2021/10/08 10:32:36;;;;;;;0.10;0.10;;;25.40;30.50;;;;;;5046963;28;20045;-75
2021/10/08 10:35:04;;;;;;;0.00;0.00;;;26.20;30.00;;;;;;5044246;28;20163;-75
2021/10/08 10:37:41;;;;;;;0.00;0.00;;;27.20;29.70;;;;;;5045195;28;20072;-75
2021/10/08 10:40:21;;;;;;;0.00;0.00;;;28.10;28.90;;;;;;5026873;28;20393;-76
2021/10/08 10:43:16;;;;;;;0.00;0.00;;;28.60;28.40;;;;;;5045071;28;20025;-77
2021/10/08 10:45:49;;;;;;;0.00;0.00;;;29.10;28.20;;;;;;5045954;28;20029;-76
2021/10/08 10:48:27;;;;;;;0.00;0.00;;;29.60;28.20;;;;;;5045689;28;20034;-76
2021/10/08 10:51:20;;;;;;;0.00;0.00;;;29.90;27.90;;;;;;5045283;28;20025;-75
2021/10/08 10:53:50;;;;;;;0.00;0.00;;;29.20;27.50;;;;;;5047555;28;20079;-74
2021/10/08 10:56:35;;;;;;;0.00;0.00;;;28.50;27.60;;;;;;5045003;28;20026;-75
2021/10/08 10:59:36;;;;;;;0.00;0.00;;;28.70;27.70;;;;;;5046752;28;20074;-75
2021/10/08 11:05:25;;;;;;;0.00;0.00;;;29.50;27.30;;;;;;4974495;28;20208;-76
2021/10/08 11:08:07;;;;;;;0.00;0.00;;;28.90;27.30;;;;;;4952920;28;20031;-75
2021/10/08 11:10:34;;;;;;;0.00;0.00;;;27.80;27.40;;;;;;5002977;28;20033;-75
2021/10/08 11:13:36;;;;;;;0.00;0.00;;;26.90;27.70;;;;;;5046261;28;20021;-75
2021/10/08 11:16:03;;;;;;;0.00;0.00;;;26.40;28.10;;;;;;4974308;28;20061;-75
2021/10/08 11:18:44;;;;;;;0.00;0.00;;;26.60;28.30;;;;;;5016994;28;20148;-75
2021/10/08 11:21:34;;;;;;;0.17;0.00;;;26.90;27.80;;;;;;5043647;28;20122;-76
2021/10/08 11:24:22;;;;;;;0.00;0.00;;;26.80;27.60;;;;;;5042598;28;20040;-75
2021/10/08 11:26:56;;;;;;;0.10;0.08;;;26.80;27.70;;;;;;5028532;28;20397;-76
2021/10/08 11:29:22;;;;;;;0.10;0.00;;;26.30;27.50;;;;;;5044853;28;20033;-75
2021/10/08 11:32:02;;;;;;;0.00;0.00;;;25.40;27.80;;;;;;5048105;28;20427;-77
2021/10/08 11:34:28;;;;;;;0.00;0.00;;;24.50;28.10;;;;;;5050397;28;20083;-76
2021/10/08 11:36:58;;;;;;;0.00;0.00;;;23.80;28.30;;;;;;5043477;28;20029;-76
2021/10/08 11:39:25;;;;;;;0.10;0.10;;;23.10;28.50;;;;;;5046459;28;20436;-76
2021/10/08 11:42:15;;;;;;;0.00;0.00;;;22.60;28.90;;;;;;5048526;28;20033;-77
2021/10/08 11:44:58;;;;;;;0.00;0.00;;;22.00;29.50;;;;;;5035012;28;20052;-74
2021/10/08 11:47:45;;;;;;;0.00;0.00;;;21.50;29.80;;;;;;5035017;28;20127;-75
2021/10/08 11:50:45;;;;;;;0.00;0.00;;;21.00;30.10;;;;;;5034627;28;20029;-76
2021/10/08 11:53:11;;;;;;;0.00;0.00;;;20.40;30.60;;;;;;5016909;28;20029;-76
2021/10/08 11:55:40;;;;;;;0.00;0.00;;;20.00;31.30;;;;;;5032271;28;20025;-77
2021/10/08 11:58:11;;;;;;;0.00;0.00;;;19.70;31.90;;;;;;5034624;28;20052;-76
2021/10/08 12:00:41;;;;;;;0.03;0.00;;;19.40;32.40;;;;;;5032107;28;20033;-75
2021/10/08 12:03:19;;;;;;;0.00;0.00;;;19.20;32.70;;;;;;5024163;28;20029;-75
2021/10/08 12:05:45;;;;;;;0.00;0.00;;;19.00;33.00;;;;;;5054369;28;20469;-75
2021/10/08 12:08:16;;;;;;;0.05;0.05;;;18.90;33.10;;;;;;5053903;28;20159;-75
2021/10/08 12:10:55;;;;;;;0.00;0.00;;;18.70;33.30;;;;;;5053771;28;20021;-76
2021/10/08 12:13:21;;;;;;;0.00;0.00;;;18.60;33.60;;;;;;5054189;28;20032;-77
2021/10/08 12:15:54;;;;;;;0.00;0.00;;;18.50;33.70;;;;;;5053927;28;20086;-76
2021/10/08 12:18:22;;;;;;;0.00;0.00;;;18.40;33.40;;;;;;5054452;28;20044;-75
2021/10/08 12:20:48;;;;;;;0.00;0.00;;;18.40;33.50;;;;;;5054068;28;20036;-76
2021/10/08 12:23:21;;;;;;;0.00;0.00;;;18.40;33.60;;;;;;5054248;28;20025;-75
2021/10/08 12:25:53;;;;;;;0.00;0.00;;;18.30;33.60;;;;;;5053585;28;20041;-75
2021/10/08 12:28:21;;;;;;;0.00;0.00;;;18.20;33.30;;;;;;5053687;28;20362;-77
2021/10/08 12:31:09;;;;;;;0.00;0.00;;;18.10;33.30;;;;;;5049000;28;20112;-77
2021/10/08 12:33:38;;;;;;;0.00;0.00;;;18.00;33.60;;;;;;5056104;28;20033;-76
2021/10/08 12:36:15;;;;;;;0.00;0.00;;;17.80;33.90;;;;;;5052990;28;20032;-75
2021/10/08 12:38:58;;;;;;;0.00;0.00;;;17.70;33.90;;;;;;5053091;28;20059;-76
2021/10/08 12:41:31;;;;;;;0.00;0.00;;;17.50;34.00;;;;;;5053309;28;20060;-76
2021/10/08 12:44:17;;;;;;;0.00;0.00;;;17.40;33.90;;;;;;5053573;28;20108;-76
2021/10/08 12:46:54;;;;;;;0.00;0.00;;;17.30;34.10;;;;;;5052834;28;20393;-78
2021/10/08 12:49:20;;;;;;;0.10;0.10;;;17.30;34.40;;;;;;5038918;28;20025;-75
2021/10/08 12:51:51;;;;;;;0.00;0.00;;;17.20;34.90;;;;;;5032487;28;20049;-75
2021/10/08 12:54:21;;;;;;;0.10;0.10;;;17.10;35.20;;;;;;5032351;28;20029;-76
2021/10/08 12:56:47;;;;;;;0.00;0.00;;;17.00;35.30;;;;;;5015534;28;20469;-75
2021/10/08 12:59:14;;;;;;;0.00;0.00;;;16.90;35.40;;;;;;5033253;28;20117;-75
2021/10/08 13:01:55;;;;;;;0.00;0.00;;;16.80;35.70;;;;;;5032613;28;20082;-75
2021/10/08 13:04:22;;;;;;;0.10;0.10;;;16.60;35.60;;;;;;5033315;28;20108;-74